Time;durP1;ratioP1;P1;durP2;ratioP2;P2;SDS_P1;SDS_P2;PMS_P1;PMS_P2;Temp;Humidity;BMP_temperature;BMP_pressure;BME280_temperature;BME280_humidity;BME280_pressure;Samples;Min_cycle;Max_cycle;Signal;HPM_P1;HPM_P2
2022/11/05 00:10:16;0.00;0.00;0.62;0.00;0.00;0.62;2.87;1.60;;;25.90;26.70;;;;;;2257828;61;20389;-65
2022/11/05 00:19:08;0.00;0.00;0.62;0.00;0.00;0.62;1.87;1.27;;;25.90;26.80;;;;;;2257291;61;20371;-66
2022/11/05 00:25:16;0.00;0.00;0.62;0.00;0.00;0.62;2.10;1.33;;;25.90;26.80;;;;;;2389097;45;20385;-65
2022/11/05 00:28:02;0.00;0.00;0.62;0.00;0.00;0.62;1.80;1.20;;;25.90;26.80;;;;;;2256809;61;20386;-65
2022/11/05 00:30:48;0.00;0.00;0.62;0.00;0.00;0.62;1.90;1.03;;;25.90;26.80;;;;;;2257377;61;20359;-65
2022/11/05 00:33:32;0.00;0.00;0.62;0.00;0.00;0.62;1.70;1.00;;;25.90;26.80;;;;;;2257196;61;20429;-65
2022/11/05 00:36:17;0.00;0.00;0.62;0.00;0.00;0.62;2.00;1.30;;;25.80;26.80;;;;;;2257138;61;20359;-65
2022/11/05 00:39:04;0.00;0.00;0.62;0.00;0.00;0.62;2.10;1.30;;;25.90;26.80;;;;;;2258326;61;20362;-64
2022/11/05 00:44:58;0.00;0.00;0.62;0.00;0.00;0.62;1.90;1.03;;;25.90;26.80;;;;;;2257928;61;20665;-65
2022/11/05 00:45:01;0.00;0.00;0.62;0.00;0.00;0.62;1.80;1.20;;;25.80;26.80;;;;;;2258004;61;20726;-65
2022/11/05 00:50:49;0.00;0.00;0.62;0.00;0.00;0.62;2.00;1.07;;;25.90;26.80;;;;;;2257125;61;20354;-65
2022/11/05 00:53:34;0.00;0.00;0.62;0.00;0.00;0.62;1.60;1.00;;;25.90;26.80;;;;;;2258129;61;20379;-66
2022/11/05 00:56:20;0.00;0.00;0.62;0.00;0.00;0.62;1.93;1.17;;;25.80;26.80;;;;;;2257979;61;20362;-65
2022/11/05 00:59:04;0.00;0.00;0.62;0.00;0.00;0.62;1.70;1.10;;;25.80;26.80;;;;;;2257523;61;20673;-66
2022/11/05 01:01:51;0.00;0.00;0.62;0.00;0.00;0.62;1.70;1.10;;;25.80;26.80;;;;;;2258166;61;20367;-66
2022/11/05 01:04:35;0.00;0.00;0.62;0.00;0.00;0.62;1.60;1.00;;;25.80;26.80;;;;;;2257371;61;20413;-66
2022/11/05 01:07:20;0.00;0.00;0.62;0.00;0.00;0.62;1.70;1.10;;;25.80;27.30;;;;;;2257828;61;20406;-65
2022/11/05 01:10:06;0.00;0.00;0.62;0.00;0.00;0.62;1.60;0.90;;;25.80;26.80;;;;;;2258264;61;20367;-65
2022/11/05 01:12:51;0.00;0.00;0.62;0.00;0.00;0.62;1.70;1.00;;;25.80;26.80;;;;;;2257208;61;20640;-66
2022/11/05 01:15:38;0.00;0.00;0.62;0.00;0.00;0.62;1.60;1.00;;;25.80;26.80;;;;;;2258131;61;20518;-65
2022/11/05 01:18:24;0.00;0.00;0.62;0.00;0.00;0.62;1.70;1.10;;;25.80;26.80;;;;;;2257839;61;20359;-65
2022/11/05 01:21:11;0.00;0.00;0.62;0.00;0.00;0.62;1.40;0.90;;;25.80;26.80;;;;;;2257511;61;20379;-65
2022/11/05 01:23:56;0.00;0.00;0.62;0.00;0.00;0.62;1.40;0.80;;;25.80;26.80;;;;;;2257788;61;20714;-65
2022/11/05 01:26:41;0.00;0.00;0.62;0.00;0.00;0.62;1.73;1.00;;;25.80;26.80;;;;;;2257310;61;20410;-65
2022/11/05 01:29:25;0.00;0.00;0.62;0.00;0.00;0.62;1.60;1.10;;;25.80;26.90;;;;;;2257836;61;20363;-66
2022/11/05 01:32:10;0.00;0.00;0.62;0.00;0.00;0.62;1.53;1.00;;;25.80;26.90;;;;;;2257997;61;20355;-65
2022/11/05 01:34:56;0.00;0.00;0.62;0.00;0.00;0.62;2.00;1.03;;;25.80;26.90;;;;;;2257307;61;20571;-63
2022/11/05 01:37:41;0.00;0.00;0.62;0.00;0.00;0.62;2.10;1.30;;;25.80;26.90;;;;;;2258293;61;20362;-63
2022/11/05 01:40:26;0.00;0.00;0.62;0.00;0.00;0.62;2.53;1.70;;;25.80;26.80;;;;;;2257305;61;20359;-65
2022/11/05 01:43:15;0.00;0.00;0.62;0.00;0.00;0.62;2.30;1.73;;;25.80;26.80;;;;;;2257257;61;20382;-65
2022/11/05 01:46:00;0.00;0.00;0.62;0.00;0.00;0.62;2.70;1.70;;;25.80;26.70;;;;;;2258065;61;20367;-64
2022/11/05 01:48:47;0.00;0.00;0.62;0.00;0.00;0.62;2.07;1.20;;;25.80;26.70;;;;;;2257165;61;20395;-64
2022/11/05 01:51:34;0.00;0.00;0.62;0.00;0.00;0.62;2.17;1.33;;;25.80;26.60;;;;;;2257803;61;20363;-65
2022/11/05 01:54:25;0.00;0.00;0.62;0.00;0.00;0.62;4.30;2.17;;;25.80;26.60;;;;;;2257942;61;20382;-64
2022/11/05 01:57:10;0.00;0.00;0.62;0.00;0.00;0.62;4.60;1.77;;;25.70;26.50;;;;;;2257209;61;20355;-65
2022/11/05 01:59:58;0.00;0.00;0.62;0.00;0.00;0.62;2.00;1.63;;;25.70;26.50;;;;;;2257630;61;20755;-65
2022/11/05 02:02:44;0.00;0.00;0.62;0.00;0.00;0.62;2.93;2.10;;;25.70;26.50;;;;;;2257586;61;20359;-65
2022/11/05 02:05:29;0.00;0.00;0.62;0.00;0.00;0.62;2.10;1.60;;;25.70;26.50;;;;;;2257221;61;20410;-65
2022/11/05 02:08:28;0.00;0.00;0.62;0.00;0.00;0.62;2.70;1.70;;;25.70;26.40;;;;;;2257562;61;20414;-65
2022/11/05 02:11:16;0.00;0.00;0.62;0.00;0.00;0.62;3.30;2.13;;;25.70;26.40;;;;;;2257213;61;20375;-65
2022/11/05 02:14:01;0.00;0.00;0.62;0.00;0.00;0.62;3.63;1.57;;;25.70;26.40;;;;;;2257430;61;20600;-65
2022/11/05 02:16:55;0.00;0.00;0.62;0.00;0.00;0.62;4.63;1.97;;;25.70;26.40;;;;;;2258047;61;20351;-65
2022/11/05 02:20:19;0.00;0.00;0.62;0.00;0.00;0.62;1.80;1.33;;;25.70;26.40;;;;;;2257247;61;20391;-65
2022/11/05 02:23:50;0.00;0.00;0.62;0.00;0.00;0.62;3.63;1.70;;;25.60;26.30;;;;;;2257702;61;20414;-64
2022/11/05 02:27:03;0.00;0.00;0.62;0.00;0.00;0.62;3.80;1.80;;;25.60;26.30;;;;;;2257188;61;20517;-64
2022/11/05 02:30:08;0.00;0.00;0.62;0.00;0.00;0.62;3.30;1.70;;;25.60;26.30;;;;;;2257919;61;20466;-64
2022/11/05 02:33:09;0.00;0.00;0.62;0.00;0.00;0.62;2.60;1.70;;;25.60;26.30;;;;;;2257562;61;20375;-64
2022/11/05 02:36:17;0.00;0.00;0.62;0.00;0.00;0.62;2.87;1.80;;;25.50;26.30;;;;;;2257547;61;20366;-64
2022/11/05 02:39:24;0.00;0.00;0.62;0.00;0.00;0.62;5.30;1.60;;;25.50;26.30;;;;;;2257956;61;20394;-64
2022/11/05 02:42:28;0.00;0.00;0.62;0.00;0.00;0.62;2.40;1.53;;;25.50;26.30;;;;;;2257014;61;20706;-64
2022/11/05 02:45:29;0.00;0.00;0.62;0.00;0.00;0.62;3.60;1.80;;;25.50;26.30;;;;;;2257842;61;20362;-63
2022/11/05 02:48:22;0.00;0.00;0.62;0.00;0.00;0.62;2.03;1.43;;;25.40;26.20;;;;;;2257175;61;20588;-64
2022/11/05 02:51:16;0.00;0.00;0.62;0.00;0.00;0.62;2.07;1.50;;;25.40;26.20;;;;;;2257676;61;20483;-64
2022/11/05 02:54:09;0.00;0.00;0.62;0.00;0.00;0.62;2.60;1.80;;;25.40;26.20;;;;;;2257690;61;20441;-64
2022/11/05 02:56:57;0.00;0.00;0.62;0.00;0.00;0.62;4.03;1.90;;;25.40;26.30;;;;;;2257153;61;20414;-63
2022/11/05 02:59:42;0.00;0.00;0.62;0.00;0.00;0.62;3.40;1.60;;;25.40;26.20;;;;;;2257683;61;20358;-64
2022/11/05 03:02:26;0.00;0.00;0.62;0.00;0.00;0.62;2.53;1.80;;;25.40;26.20;;;;;;2257048;61;20382;-64
2022/11/05 03:05:12;0.00;0.00;0.62;0.00;0.00;0.62;3.03;2.00;;;25.40;26.20;;;;;;2257520;61;20364;-64
2022/11/05 03:08:08;0.00;0.00;0.62;0.00;0.00;0.62;2.20;1.50;;;25.30;26.10;;;;;;2257729;61;20383;-64
2022/11/05 03:10:59;0.00;0.00;0.62;0.00;0.00;0.62;2.37;1.73;;;25.30;26.10;;;;;;2257053;61;20382;-64
2022/11/05 03:13:54;0.00;0.00;0.62;0.00;0.00;0.62;1.80;1.37;;;25.30;26.20;;;;;;2257620;61;20382;-64
2022/11/05 03:16:42;0.00;0.00;0.62;0.00;0.00;0.62;3.00;1.50;;;25.30;26.20;;;;;;2257566;61;20526;-64
2022/11/05 03:19:35;0.00;0.00;0.62;0.00;0.00;0.62;3.90;1.70;;;25.20;26.10;;;;;;2257041;61;20394;-64
2022/11/05 03:22:26;0.00;0.00;0.62;0.00;0.00;0.62;2.73;1.77;;;25.20;26.10;;;;;;2257614;61;20397;-64
2022/11/05 03:25:14;0.00;0.00;0.62;0.00;0.00;0.62;2.43;1.83;;;25.20;26.10;;;;;;2289976;53;20384;-64
2022/11/05 03:28:04;0.00;0.00;0.62;0.00;0.00;0.62;3.20;1.80;;;25.20;26.10;;;;;;2253446;61;20601;-64
2022/11/05 03:30:51;0.00;0.00;0.62;0.00;0.00;0.62;3.60;1.50;;;25.20;26.20;;;;;;2253772;61;20395;-64
2022/11/05 03:33:38;0.00;0.00;0.62;0.00;0.00;0.62;3.67;2.10;;;25.20;26.20;;;;;;2252753;61;20466;-64
2022/11/05 03:36:30;0.00;0.00;0.62;0.00;0.00;0.62;3.80;1.73;;;25.20;26.20;;;;;;2253762;61;20364;-65
2022/11/05 03:39:22;0.00;0.00;0.62;0.00;0.00;0.62;3.20;1.47;;;25.10;26.10;;;;;;2253249;61;20407;-64
2022/11/05 03:42:11;0.00;0.00;0.62;0.00;0.00;0.62;3.27;1.60;;;25.10;26.10;;;;;;2253292;61;20356;-64
2022/11/05 03:45:01;0.00;0.00;0.62;0.00;0.00;0.62;3.30;1.70;;;25.10;26.10;;;;;;2253855;61;20355;-64
2022/11/05 03:47:47;0.00;0.00;0.62;0.00;0.00;0.62;3.80;1.93;;;25.10;26.20;;;;;;2252761;61;20858;-64
2022/11/05 03:50:39;0.00;0.00;0.62;0.00;0.00;0.62;2.17;1.20;;;25.10;26.20;;;;;;2253583;61;20363;-65
2022/11/05 03:53:28;0.00;0.00;0.62;0.00;0.00;0.62;2.50;1.70;;;25.10;26.20;;;;;;2253134;61;20391;-64
2022/11/05 03:56:21;0.00;0.00;0.62;0.00;0.00;0.62;3.37;1.30;;;25.10;26.30;;;;;;2252947;61;20449;-64
2022/11/05 03:59:09;0.00;0.00;0.62;0.00;0.00;0.62;1.70;1.20;;;25.00;26.20;;;;;;2253765;61;20355;-65
2022/11/05 04:01:55;0.00;0.00;0.62;0.00;0.00;0.62;2.70;1.63;;;25.00;26.20;;;;;;2252767;61;20372;-64
2022/11/05 04:04:40;0.00;0.00;0.62;0.00;0.00;0.62;2.33;1.20;;;25.00;26.30;;;;;;2253402;61;20609;-65
2022/11/05 04:13:22;0.00;0.00;0.62;0.00;0.00;0.62;2.33;1.40;;;25.00;26.30;;;;;;2252890;61;20476;-65
2022/11/05 04:13:50;0.00;0.00;0.62;0.00;0.00;0.62;2.83;1.67;;;25.00;26.40;;;;;;2254129;61;20391;-64
2022/11/05 04:25:47;0.00;0.00;0.62;0.00;0.00;0.62;2.37;1.30;;;24.90;26.50;;;;;;2253448;61;20415;-65
2022/11/05 04:30:17;0.00;0.00;0.62;0.00;0.00;0.62;5.23;1.40;;;24.90;26.50;;;;;;2254058;61;20460;-64
2022/11/05 04:31:38;0.00;0.00;0.62;0.00;0.00;0.62;2.30;1.40;;;24.90;26.50;;;;;;2253427;61;20375;-64
2022/11/05 04:34:23;0.00;0.00;0.62;0.00;0.00;0.62;2.00;1.40;;;24.80;26.40;;;;;;2253645;61;20755;-64
2022/11/05 04:37:08;0.00;0.00;0.62;0.00;0.00;0.62;3.37;1.87;;;24.80;26.40;;;;;;2254130;61;20391;-64
2022/11/05 04:39:52;0.00;0.00;0.62;0.00;0.00;0.62;2.83;1.70;;;24.80;26.40;;;;;;2253387;61;20367;-64
2022/11/05 04:42:37;0.00;0.00;0.62;0.00;0.00;0.62;3.00;1.50;;;24.80;26.40;;;;;;2256374;61;20364;-64
2022/11/05 04:45:22;0.00;0.00;0.62;0.00;0.00;0.62;2.53;1.33;;;24.80;26.40;;;;;;2253821;61;20382;-65
2022/11/05 04:48:08;0.00;0.00;0.62;0.00;0.00;0.62;2.03;1.33;;;24.70;26.30;;;;;;2253115;61;20527;-64
2022/11/05 04:50:53;0.00;0.00;0.62;0.00;0.00;0.62;2.43;1.20;;;24.70;26.30;;;;;;2254083;61;20443;-64
2022/11/05 04:53:38;0.00;0.00;0.62;0.00;0.00;0.62;2.50;1.30;;;24.70;26.30;;;;;;2253038;61;20383;-64
2022/11/05 04:56:24;0.00;0.00;0.62;0.00;0.00;0.62;2.77;1.43;;;24.70;26.30;;;;;;2253504;61;20657;-65
2022/11/05 04:59:09;0.00;0.00;0.62;0.00;0.00;0.62;2.90;1.57;;;24.70;26.30;;;;;;2254130;61;20727;-64
2022/11/05 05:01:53;0.00;0.00;0.62;0.00;0.00;0.62;3.70;1.40;;;24.70;26.30;;;;;;2253246;61;20411;-64
2022/11/05 05:04:39;0.00;0.00;0.62;0.00;0.00;0.62;3.90;1.53;;;24.70;26.30;;;;;;2253560;61;20383;-65
2022/11/05 05:07:25;0.00;0.00;0.62;0.00;0.00;0.62;1.80;1.27;;;24.70;26.30;;;;;;2253754;61;20391;-64
2022/11/05 05:10:10;0.00;0.00;0.62;0.00;0.00;0.62;3.00;1.20;;;24.60;26.30;;;;;;2252843;61;20360;-64
2022/11/05 05:12:55;0.00;0.00;0.62;0.00;0.00;0.62;3.50;1.60;;;24.60;26.30;;;;;;2253779;61;20799;-64
2022/11/05 05:15:40;0.00;0.00;0.62;0.00;0.00;0.62;3.10;1.30;;;24.60;26.30;;;;;;2253740;61;20351;-65
2022/11/05 05:18:27;0.00;0.00;0.62;0.00;0.00;0.62;3.93;1.60;;;24.60;26.30;;;;;;2255985;61;20694;-64
2022/11/05 05:24:20;0.00;0.00;0.62;0.00;0.00;0.62;2.80;1.40;;;24.60;26.30;;;;;;2234571;61;1156556;-64
2022/11/05 05:27:05;0.00;0.00;0.62;0.00;0.00;0.62;3.57;1.50;;;24.60;26.30;;;;;;2254215;61;20263;-64
2022/11/05 05:29:49;0.00;0.00;0.62;0.00;0.00;0.62;1.90;1.10;;;24.50;26.30;;;;;;2253912;61;20743;-64
2022/11/05 05:32:34;0.00;0.00;0.62;0.00;0.00;0.62;4.63;1.37;;;24.50;26.30;;;;;;2255526;61;20438;-67
2022/11/05 05:35:19;0.00;0.00;0.62;0.00;0.00;0.62;2.40;1.57;;;24.50;26.20;;;;;;2254185;61;20359;-64
2022/11/05 05:38:05;0.00;0.00;0.62;0.00;0.00;0.62;4.40;1.73;;;24.50;26.30;;;;;;2253352;61;20356;-64
2022/11/05 05:40:50;0.00;0.00;0.62;0.00;0.00;0.62;3.30;1.40;;;24.50;26.20;;;;;;2253823;61;20379;-64
2022/11/05 05:43:35;0.00;0.00;0.62;0.00;0.00;0.62;1.73;1.13;;;24.50;26.20;;;;;;2254113;61;20783;-63
2022/11/05 05:46:20;0.00;0.00;0.62;0.00;0.00;0.62;1.87;1.17;;;24.50;26.30;;;;;;2253203;61;20369;-63
2022/11/05 05:49:04;0.00;0.00;0.62;0.00;0.00;0.62;3.73;1.50;;;24.50;26.30;;;;;;2253926;61;20620;-64
2022/11/05 05:51:50;0.00;0.00;0.62;0.00;0.00;0.62;2.07;1.40;;;24.40;26.20;;;;;;2253673;61;20428;-64
2022/11/05 05:54:36;0.00;0.00;0.62;0.00;0.00;0.62;2.23;1.43;;;24.40;26.20;;;;;;2252783;61;20410;-64
2022/11/05 05:57:21;0.00;0.00;0.62;0.00;0.00;0.62;4.43;1.20;;;24.40;26.20;;;;;;2254167;61;20431;-63
2022/11/05 06:00:07;0.00;0.00;0.62;0.00;0.00;0.62;3.80;1.50;;;24.30;26.20;;;;;;2256054;61;20403;-63
2022/11/05 06:02:56;0.00;0.00;0.62;0.00;0.00;0.62;3.33;1.50;;;24.40;26.20;;;;;;2253543;61;20419;-65
2022/11/05 06:05:40;0.00;0.00;0.62;0.00;0.00;0.62;2.27;1.37;;;24.40;26.20;;;;;;2254072;61;20400;-66
2022/11/05 06:08:25;0.00;0.00;0.62;0.00;0.00;0.62;3.90;1.50;;;24.30;26.20;;;;;;2255582;61;20613;-64
2022/11/05 06:11:12;0.00;0.00;0.62;0.00;0.00;0.62;1.73;1.07;;;24.30;26.20;;;;;;2253470;61;20749;-70
2022/11/05 06:13:57;0.00;0.00;0.62;0.00;0.00;0.62;2.63;1.37;;;24.30;26.20;;;;;;2256499;61;20414;-66
2022/11/05 06:16:42;0.00;0.00;0.62;0.00;0.00;0.62;2.30;1.20;;;24.30;26.20;;;;;;2257289;61;20367;-66
2022/11/05 06:19:27;0.00;0.00;0.62;0.00;0.00;0.62;1.50;0.93;;;24.30;26.20;;;;;;2258087;61;20347;-66
2022/11/05 06:22:13;0.00;0.00;0.62;0.00;0.00;0.62;2.33;1.10;;;24.30;26.20;;;;;;2257463;61;20359;-71
2022/11/05 06:24:57;0.00;0.00;0.62;0.00;0.00;0.62;3.43;1.33;;;24.30;26.20;;;;;;2380790;45;20419;-64
2022/11/05 06:27:43;0.00;0.00;0.62;0.00;0.00;0.62;4.13;1.90;;;24.30;26.20;;;;;;2253941;61;20391;-64
2022/11/05 06:30:28;0.00;0.00;0.62;0.00;0.00;0.62;3.50;1.67;;;24.20;26.00;;;;;;2253284;61;20711;-63
2022/11/05 06:33:12;0.00;0.00;0.62;0.00;0.00;0.62;2.07;1.10;;;24.20;26.00;;;;;;2253482;61;20387;-64
2022/11/05 06:35:58;0.00;0.00;0.62;0.00;0.00;0.62;2.03;1.10;;;24.20;26.00;;;;;;2253899;61;20432;-64
2022/11/05 06:38:44;0.00;0.00;0.62;0.00;0.00;0.62;2.57;1.50;;;24.20;26.00;;;;;;2253333;61;20708;-66
2022/11/05 06:41:28;0.00;0.00;0.62;0.00;0.00;0.62;2.70;1.37;;;24.10;26.00;;;;;;2254062;61;20363;-68
2022/11/05 06:44:14;0.00;0.00;0.62;0.00;0.00;0.62;2.60;1.43;;;24.10;26.00;;;;;;2253565;61;20387;-66
2022/11/05 06:46:59;0.00;0.00;0.62;0.00;0.00;0.62;3.67;1.50;;;24.10;26.50;;;;;;2253327;61;20523;-66
2022/11/05 06:49:44;0.00;0.00;0.62;0.00;0.00;0.62;2.47;1.30;;;24.10;26.00;;;;;;2254071;61;20444;-65
2022/11/05 06:52:30;0.00;0.00;0.62;0.00;0.00;0.62;2.00;1.10;;;24.10;25.90;;;;;;2253053;61;20407;-65
2022/11/05 06:55:15;0.00;0.00;0.62;0.00;0.00;0.62;3.00;1.80;;;24.00;25.90;;;;;;2253682;61;20352;-66
2022/11/05 06:58:00;0.00;0.00;0.62;0.00;0.00;0.62;3.00;1.47;;;24.00;25.90;;;;;;2253932;61;20428;-65
2022/11/05 07:00:46;0.00;0.00;0.62;0.00;0.00;0.62;2.07;1.10;;;24.00;25.90;;;;;;2253194;61;20359;-66
2022/11/05 07:03:31;0.00;0.00;0.62;0.00;0.00;0.62;3.27;1.30;;;24.00;25.90;;;;;;2253699;61;20399;-65
2022/11/05 07:06:16;0.00;0.00;0.62;0.00;0.00;0.62;2.47;1.23;;;24.00;25.90;;;;;;2253681;61;20355;-64
2022/11/05 07:09:00;0.00;0.00;0.62;0.00;0.00;0.62;2.90;1.43;;;24.00;25.90;;;;;;2253172;61;20481;-65
2022/11/05 07:11:45;0.00;0.00;0.62;0.00;0.00;0.62;2.77;1.53;;;24.00;25.90;;;;;;2253851;61;20480;-65
2022/11/05 07:14:29;0.00;0.00;0.62;0.00;0.00;0.62;3.87;1.37;;;24.00;25.90;;;;;;2252995;61;20384;-64
2022/11/05 07:17:17;0.00;0.00;0.62;0.00;0.00;0.62;3.43;1.40;;;24.00;25.90;;;;;;2253700;61;20351;-64
2022/11/05 07:20:03;0.00;0.00;0.62;0.00;0.00;0.62;3.90;1.80;;;24.00;25.90;;;;;;2253806;61;20371;-64
2022/11/05 07:22:48;0.00;0.00;0.62;0.00;0.00;0.62;2.47;1.10;;;24.00;25.90;;;;;;2253014;61;20437;-64
2022/11/05 07:25:33;0.00;0.00;0.62;0.00;0.00;0.62;3.23;1.50;;;24.00;26.00;;;;;;2253760;61;20411;-64
2022/11/05 07:28:18;0.00;0.00;0.62;0.00;0.00;0.62;2.70;1.37;;;23.90;25.90;;;;;;2253185;61;20387;-64
2022/11/05 07:31:03;0.00;0.00;0.62;0.00;0.00;0.62;2.60;1.30;;;24.00;26.00;;;;;;2252629;61;20368;-64
2022/11/05 07:33:49;0.00;0.00;0.62;0.00;0.00;0.62;1.97;1.20;;;24.00;26.00;;;;;;2253256;61;20586;-64
2022/11/05 07:36:34;0.00;0.00;0.62;0.00;0.00;0.62;1.87;1.10;;;23.90;26.00;;;;;;2253065;61;20407;-64
2022/11/05 07:39:20;0.00;0.00;0.62;0.00;0.00;0.62;1.90;1.17;;;24.00;26.00;;;;;;2253279;61;20372;-64
2022/11/05 07:42:04;0.00;0.00;0.62;0.00;0.00;0.62;2.17;1.50;;;24.00;26.10;;;;;;2253488;61;20363;-64
2022/11/05 07:44:51;0.00;0.00;0.62;0.00;0.00;0.62;3.00;1.20;;;24.00;26.10;;;;;;2255347;61;20779;-64
2022/11/05 07:47:37;0.00;0.00;0.62;0.00;0.00;0.62;2.10;1.10;;;24.00;26.10;;;;;;2253599;61;20780;-64
2022/11/05 07:50:26;0.00;0.00;0.62;0.00;0.00;0.62;2.00;1.20;;;24.00;26.20;;;;;;2255863;61;20356;-64
2022/11/05 07:53:13;0.00;0.00;0.62;0.00;0.00;0.62;1.70;0.90;;;24.00;26.20;;;;;;2252717;61;20383;-64
2022/11/05 07:55:57;0.00;0.00;0.62;0.00;0.00;0.62;1.90;1.10;;;24.00;26.20;;;;;;2253563;61;20448;-64
2022/11/05 07:58:42;0.00;0.00;0.62;0.00;0.00;0.62;1.97;0.93;;;24.00;26.20;;;;;;2253094;61;20395;-64
2022/11/05 08:01:27;0.00;0.00;0.62;0.00;0.00;0.62;1.67;0.80;;;24.00;26.20;;;;;;2253242;61;20665;-64
2022/11/05 08:04:12;0.00;0.00;0.62;0.00;0.00;0.62;1.63;0.90;;;24.00;26.20;;;;;;2253401;61;20635;-64
2022/11/05 08:06:58;0.00;0.00;0.62;0.00;0.00;0.62;1.70;0.90;;;24.00;26.20;;;;;;2253035;61;20367;-64
2022/11/05 08:09:42;0.00;0.00;0.62;0.00;0.00;0.62;2.10;1.17;;;24.00;26.20;;;;;;2253438;61;20360;-64
2022/11/05 08:12:27;0.00;0.00;0.62;0.00;0.00;0.62;1.80;1.00;;;24.00;26.30;;;;;;2253463;61;20356;-64
2022/11/05 08:15:12;0.00;0.00;0.62;0.00;0.00;0.62;2.03;1.10;;;24.00;26.30;;;;;;2252353;61;20372;-64
2022/11/05 08:18:01;0.00;0.00;0.62;0.00;0.00;0.62;1.60;0.93;;;24.00;26.40;;;;;;2253516;61;20449;-64
2022/11/05 08:20:47;0.00;0.00;0.62;0.00;0.00;0.62;1.80;1.20;;;24.10;26.30;;;;;;2255894;61;20618;-64
2022/11/05 08:23:32;0.00;0.00;0.62;0.00;0.00;0.62;1.50;1.00;;;24.20;26.30;;;;;;2253015;61;20834;-64
2022/11/05 08:26:18;0.00;0.00;0.62;0.00;0.00;0.62;1.70;0.90;;;24.20;26.30;;;;;;2253432;61;20472;-64
2022/11/05 08:29:03;0.00;0.00;0.62;0.00;0.00;0.62;1.93;1.00;;;24.20;26.40;;;;;;2253005;61;20379;-64
2022/11/05 08:31:47;0.00;0.00;0.62;0.00;0.00;0.62;1.77;0.80;;;24.20;26.40;;;;;;2253233;61;20465;-64
2022/11/05 08:34:32;0.00;0.00;0.62;0.00;0.00;0.62;1.97;0.90;;;24.20;26.40;;;;;;2253357;61;20426;-64
2022/11/05 08:37:17;0.00;0.00;0.62;0.00;0.00;0.62;1.40;0.80;;;24.20;26.40;;;;;;2252666;61;20407;-64
2022/11/05 08:40:04;0.00;0.00;0.62;0.00;0.00;0.62;1.67;0.90;;;24.20;26.40;;;;;;2253421;61;20770;-64
2022/11/05 08:42:48;0.00;0.00;0.62;0.00;0.00;0.62;1.73;1.00;;;24.30;26.40;;;;;;2253413;61;20741;-64
2022/11/05 08:45:35;0.00;0.00;0.62;0.00;0.00;0.62;1.70;0.90;;;24.30;27.00;;;;;;2253023;61;20383;-64
2022/11/05 08:48:20;0.00;0.00;0.62;0.00;0.00;0.62;1.73;1.27;;;24.30;26.40;;;;;;2253365;61;20431;-64
2022/11/05 08:51:05;0.00;0.00;0.62;0.00;0.00;0.62;1.90;1.10;;;24.30;26.50;;;;;;2252911;61;20360;-64
2022/11/05 08:53:50;0.00;0.00;0.62;0.00;0.00;0.62;1.50;0.80;;;24.30;26.50;;;;;;2252893;61;20420;-64
2022/11/05 08:56:35;0.00;0.00;0.62;0.00;0.00;0.62;1.40;0.80;;;24.40;26.50;;;;;;2253599;61;20577;-64
2022/11/05 08:59:20;0.00;0.00;0.62;0.00;0.00;0.62;1.90;1.03;;;24.40;26.50;;;;;;2253370;61;20355;-64
2022/11/05 09:02:05;0.00;0.00;0.62;0.00;0.00;0.62;2.30;0.83;;;24.40;26.50;;;;;;2254140;61;20367;-64
2022/11/05 09:04:50;0.00;0.00;0.62;0.00;0.00;0.62;1.70;0.97;;;24.40;26.50;;;;;;2253702;61;20459;-64
2022/11/05 09:07:35;0.00;0.00;0.62;0.00;0.00;0.62;2.60;1.00;;;24.40;26.50;;;;;;2253353;61;20419;-64
2022/11/05 09:10:19;0.00;0.00;0.62;0.00;0.00;0.62;1.83;1.00;;;24.50;26.60;;;;;;2254081;61;20407;-64
2022/11/05 09:13:06;0.00;0.00;0.62;0.00;0.00;0.62;1.80;0.93;;;24.50;26.60;;;;;;2253374;61;20491;-64
2022/11/05 09:15:51;0.00;0.00;0.62;0.00;0.00;0.62;1.77;0.80;;;24.50;26.60;;;;;;2253795;61;20347;-64
2022/11/05 09:18:37;0.00;0.00;0.62;0.00;0.00;0.62;1.87;0.90;;;24.50;26.60;;;;;;2254142;61;20364;-64
2022/11/05 09:21:22;0.00;0.00;0.62;0.00;0.00;0.62;1.63;0.90;;;24.60;26.60;;;;;;2253241;61;20391;-64
2022/11/05 09:24:07;0.00;0.00;0.62;0.00;0.00;0.62;1.60;0.90;;;24.60;26.60;;;;;;2253829;61;20399;-64
2022/11/05 09:26:52;0.00;0.00;0.62;0.00;0.00;0.62;1.60;0.90;;;24.60;26.60;;;;;;2254095;61;20394;-64
2022/11/05 09:29:38;0.00;0.00;0.62;0.00;0.00;0.62;2.63;0.90;;;24.60;26.60;;;;;;2253340;61;20356;-64
2022/11/05 09:32:23;0.00;0.00;0.62;0.00;0.00;0.62;1.97;1.00;;;24.60;26.60;;;;;;2253950;61;20363;-64
2022/11/05 09:35:08;0.00;0.00;0.62;0.00;0.00;0.62;1.63;0.80;;;24.70;26.70;;;;;;2253716;61;20652;-64
2022/11/05 09:37:53;0.00;0.00;0.62;0.00;0.00;0.62;1.50;0.80;;;24.70;27.20;;;;;;2253794;61;20700;-64
2022/11/05 09:40:41;0.00;0.00;0.62;0.00;0.00;0.62;1.73;0.90;;;24.70;26.60;;;;;;2254088;61;20459;-63
2022/11/05 09:43:34;0.00;0.00;0.62;0.00;0.00;0.62;1.47;0.90;;;24.70;26.60;;;;;;2253258;61;20443;-64
2022/11/05 09:46:23;0.00;0.00;0.62;0.00;0.00;0.62;1.40;0.80;;;24.80;26.70;;;;;;2253965;61;20356;-64
2022/11/05 09:49:21;0.00;0.00;0.62;0.00;0.00;0.62;1.53;0.80;;;24.80;26.70;;;;;;2253955;61;20501;-64
2022/11/05 09:52:12;0.00;0.00;0.62;0.00;0.00;0.62;2.03;0.93;;;24.90;26.70;;;;;;2253327;61;20363;-64
2022/11/05 09:54:57;0.00;0.00;0.62;0.00;0.00;0.62;1.80;1.00;;;24.90;26.70;;;;;;2254032;61;20364;-64
2022/11/05 09:57:49;0.00;0.00;0.62;0.00;0.00;0.62;2.03;1.00;;;24.90;26.70;;;;;;2253446;61;20356;-64
2022/11/05 10:00:34;0.00;0.00;0.62;0.00;0.00;0.62;1.53;0.90;;;24.90;26.70;;;;;;2253698;61;20345;-64
2022/11/05 10:03:22;0.00;0.00;0.62;0.00;0.00;0.62;1.93;0.80;;;24.90;26.70;;;;;;2253744;61;20411;-64
2022/11/05 10:06:12;0.00;0.00;0.62;0.00;0.00;0.62;1.80;0.87;;;25.00;26.80;;;;;;2253147;61;20492;-64
2022/11/05 10:09:04;0.00;0.00;0.62;0.00;0.00;0.62;1.60;0.90;;;25.00;26.80;;;;;;2255949;61;20419;-63
2022/11/05 10:11:55;0.00;0.00;0.62;0.00;0.00;0.62;2.00;0.87;;;25.00;26.80;;;;;;2253651;61;20760;-64
2022/11/05 10:14:45;0.00;0.00;0.62;0.00;0.00;0.62;1.50;0.80;;;25.10;26.80;;;;;;2253599;61;20504;-64
2022/11/05 10:17:32;0.00;0.00;0.62;0.00;0.00;0.62;1.70;1.07;;;25.10;26.80;;;;;;2253889;61;20452;-63
2022/11/05 10:20:30;0.00;0.00;0.62;0.00;0.00;0.62;1.60;1.10;;;25.10;26.80;;;;;;2253474;61;20355;-63
2022/11/05 10:23:18;0.00;0.00;0.62;0.00;0.00;0.62;2.03;1.10;;;25.20;26.80;;;;;;2253701;61;20747;-63
2022/11/05 10:26:06;0.00;0.00;0.62;0.00;0.00;0.62;1.70;0.90;;;25.20;26.80;;;;;;2253700;61;20359;-62
2022/11/05 10:28:52;0.00;0.00;0.62;0.00;0.00;0.62;1.40;0.90;;;25.20;26.80;;;;;;2253123;61;20457;-62
2022/11/05 10:31:37;0.00;0.00;0.62;0.00;0.00;0.62;1.80;0.83;;;25.20;27.40;;;;;;2253745;61;20364;-62
2022/11/05 10:34:26;0.00;0.00;0.62;0.00;0.00;0.62;1.50;1.00;;;25.30;26.90;;;;;;2253362;61;20430;-62
2022/11/05 10:37:12;0.00;0.00;0.62;0.00;0.00;0.62;1.77;1.00;;;25.30;26.90;;;;;;2255906;61;20363;-63
2022/11/05 10:39:57;0.00;0.00;0.62;0.00;0.00;0.62;1.80;1.00;;;25.40;26.90;;;;;;2253629;61;20360;-63
2022/11/05 10:42:56;0.00;0.00;0.62;0.00;0.00;0.62;1.87;1.00;;;25.40;27.50;;;;;;2253142;61;20363;-63
2022/11/05 10:45:51;0.00;0.00;0.62;0.00;0.00;0.62;1.60;0.90;;;25.40;26.90;;;;;;2253662;61;20396;-63
2022/11/05 10:48:59;0.00;0.00;0.62;0.00;0.00;0.62;1.40;0.90;;;25.50;27.00;;;;;;2253761;61;20390;-63
2022/11/05 10:51:45;0.00;0.00;0.62;0.00;0.00;0.62;1.40;0.90;;;25.50;27.00;;;;;;2253520;61;20352;-62
2022/11/05 10:54:34;0.00;0.00;0.62;0.00;0.00;0.62;1.70;0.80;;;25.60;26.90;;;;;;2256096;61;20387;-64
2022/11/05 10:57:30;0.00;0.00;0.62;0.00;0.00;0.62;1.63;0.93;;;25.60;26.90;;;;;;2253360;61;20360;-64
2022/11/05 11:00:27;0.00;0.00;0.62;0.00;0.00;0.62;1.80;1.10;;;25.60;26.90;;;;;;2253753;61;20403;-64
2022/11/05 11:03:40;0.00;0.00;0.62;0.00;0.00;0.62;1.67;1.03;;;25.70;27.00;;;;;;2253611;61;20410;-64
2022/11/05 11:06:27;0.00;0.00;0.62;0.00;0.00;0.62;1.50;0.90;;;25.70;26.90;;;;;;2253362;61;20376;-63
2022/11/05 11:09:21;0.00;0.00;0.62;0.00;0.00;0.62;1.50;0.80;;;25.80;26.90;;;;;;2253599;61;20418;-64
2022/11/05 11:12:26;0.00;0.00;0.62;0.00;0.00;0.62;1.83;1.00;;;25.80;26.90;;;;;;2253116;61;20775;-63
2022/11/05 11:15:14;0.00;0.00;0.62;0.00;0.00;0.62;1.70;0.90;;;25.80;26.80;;;;;;2253605;61;20357;-63
2022/11/05 11:18:23;0.00;0.00;0.62;0.00;0.00;0.62;1.80;1.10;;;25.90;26.90;;;;;;2253790;61;20415;-64
2022/11/05 11:21:14;0.00;0.00;0.62;0.00;0.00;0.62;1.97;1.20;;;25.90;26.80;;;;;;2255660;61;20391;-64
2022/11/05 11:24:01;0.00;0.00;0.62;0.00;0.00;0.62;2.07;1.10;;;26.00;26.80;;;;;;2253479;61;20383;-63
2022/11/05 11:26:46;0.00;0.00;0.62;0.00;0.00;0.62;1.50;1.00;;;26.00;26.70;;;;;;2255420;61;20356;-63
2022/11/05 11:29:38;0.00;0.00;0.62;0.00;0.00;0.62;2.50;1.20;;;26.00;26.70;;;;;;2253505;61;20396;-64
2022/11/05 11:32:30;0.00;0.00;0.62;0.00;0.00;0.62;2.47;1.17;;;26.10;26.80;;;;;;2253565;61;20363;-64
2022/11/05 11:35:20;0.00;0.00;0.62;0.00;0.00;0.62;1.30;0.80;;;26.10;27.30;;;;;;2252910;61;20407;-64
2022/11/05 11:38:10;0.00;0.00;0.62;0.00;0.00;0.62;3.20;1.57;;;26.20;26.80;;;;;;2256117;61;20396;-64
2022/11/05 11:41:13;0.00;0.00;0.62;0.00;0.00;0.62;1.63;1.17;;;26.20;26.70;;;;;;2253257;61;20399;-64